Time;durP1;ratioP1;P1;durP2;ratioP2;P2;SDS_P1;SDS_P2;PMS_P1;PMS_P2;Temp;Humidity;BMP_temperature;BMP_pressure;BME280_temperature;BME280_humidity;BME280_pressure;Samples;Min_cycle;Max_cycle;Signal;HPM_P1;HPM_P2
2022/09/09 00:02:07;;;;;;;1.90;1.25;;;18.80;93.20;;;;;;5077686;28;20009;-86
2022/09/09 00:04:37;;;;;;;1.85;1.40;;;18.80;93.30;;;;;;5061546;28;20097;-85
2022/09/09 00:07:41;;;;;;;1.90;1.30;;;18.80;93.30;;;;;;5052735;28;20452;-85
2022/09/09 00:10:27;;;;;;;2.15;1.10;;;18.80;93.40;;;;;;5041599;28;20035;-86
2022/09/09 00:13:20;;;;;;;2.13;1.20;;;18.80;93.40;;;;;;5059023;28;20089;-86
2022/09/09 00:15:59;;;;;;;3.08;1.10;;;18.70;93.50;;;;;;5040846;28;20475;-86
2022/09/09 00:18:25;;;;;;;1.20;1.10;;;18.70;93.50;;;;;;5041991;28;20046;-86
2022/09/09 00:21:12;;;;;;;1.90;0.90;;;18.70;93.40;;;;;;5041174;28;20021;-86
2022/09/09 00:23:51;;;;;;;1.02;1.00;;;18.70;93.50;;;;;;5025196;28;20517;-86
2022/09/09 00:26:36;;;;;;;1.10;0.90;;;18.80;93.60;;;;;;5041684;28;20017;-86
2022/09/09 00:29:16;;;;;;;2.25;1.42;;;18.70;93.50;;;;;;5041108;28;20029;-86
2022/09/09 00:31:46;;;;;;;2.57;1.20;;;18.70;93.50;;;;;;5041224;28;20499;-85
2022/09/09 00:34:21;;;;;;;1.90;1.20;;;18.80;93.50;;;;;;5041328;28;20266;-85
2022/09/09 00:36:54;;;;;;;4.57;1.60;;;18.80;93.50;;;;;;5058296;28;20334;-86
2022/09/09 00:39:49;;;;;;;2.60;1.35;;;18.80;93.60;;;;;;5040606;28;20017;-84
2022/09/09 00:42:22;;;;;;;2.08;1.25;;;18.80;93.60;;;;;;5040110;28;20119;-85
2022/09/09 00:44:57;;;;;;;1.80;1.30;;;18.80;93.60;;;;;;5040888;28;20111;-86
2022/09/09 00:47:42;;;;;;;3.05;1.60;;;18.80;93.60;;;;;;5039760;28;20590;-83
2022/09/09 00:50:25;;;;;;;1.75;1.30;;;18.80;93.60;;;;;;5057893;28;20404;-85
2022/09/09 00:53:00;;;;;;;1.52;1.25;;;18.80;93.60;;;;;;5057074;28;20025;-87
2022/09/09 00:55:33;;;;;;;2.70;1.30;;;18.80;93.60;;;;;;5039989;28;20037;-84
2022/09/09 00:58:07;;;;;;;3.75;1.60;;;18.80;93.60;;;;;;5040416;28;20044;-85
2022/09/09 01:00:53;;;;;;;2.67;1.40;;;18.70;93.60;;;;;;5040397;28;20397;-86
2022/09/09 01:03:37;;;;;;;2.05;1.10;;;18.70;93.60;;;;;;5040570;28;20035;-84
2022/09/09 01:06:15;;;;;;;2.45;1.30;;;18.70;93.60;;;;;;5040077;28;20083;-85
2022/09/09 01:09:00;;;;;;;1.67;1.20;;;18.70;93.50;;;;;;5040500;28;20033;-85
2022/09/09 01:11:42;;;;;;;3.70;1.40;;;18.70;93.40;;;;;;5041070;28;20029;-86
2022/09/09 01:14:42;;;;;;;3.30;1.20;;;18.60;93.40;;;;;;5040694;28;20128;-87
2022/09/09 01:17:32;;;;;;;3.15;1.30;;;18.60;93.40;;;;;;5059035;28;20052;-88
2022/09/09 01:20:19;;;;;;;3.35;1.20;;;18.60;93.30;;;;;;5041045;28;20017;-85
2022/09/09 01:23:08;;;;;;;3.15;1.40;;;18.50;93.30;;;;;;5059049;28;20021;-86
2022/09/09 01:26:12;;;;;;;1.73;1.10;;;18.50;93.30;;;;;;5040773;28;20025;-85
2022/09/09 01:28:40;;;;;;;2.90;1.40;;;18.50;93.30;;;;;;5040404;28;20025;-85
2022/09/09 01:31:11;;;;;;;1.25;1.15;;;18.40;93.30;;;;;;5040907;28;20036;-84
2022/09/09 01:33:37;;;;;;;;;;;18.50;93.30;;;;;;5040781;28;20021;-85
2022/09/09 01:36:15;;;;;;;2.92;1.15;;;18.40;93.20;;;;;;5040905;28;19931;-86
2022/09/09 01:38:43;;;;;;;2.30;1.13;;;18.40;93.20;;;;;;5041024;28;20089;-86
2022/09/09 01:41:11;;;;;;;2.55;1.38;;;18.40;93.20;;;;;;5040386;28;20381;-85
2022/09/09 01:43:40;;;;;;;2.67;1.45;;;18.30;93.10;;;;;;5040594;28;20017;-85
2022/09/09 01:46:06;;;;;;;2.08;1.40;;;18.30;93.10;;;;;;5024594;28;20080;-83
2022/09/09 01:48:39;;;;;;;1.35;1.20;;;18.30;93.10;;;;;;5041834;28;20037;-85
2022/09/09 01:51:18;;;;;;;1.95;1.08;;;18.30;93.20;;;;;;5054275;28;20064;-85
2022/09/09 01:53:47;;;;;;;2.30;1.20;;;18.20;93.10;;;;;;5062124;28;20105;-85
2022/09/09 01:56:21;;;;;;;1.10;1.00;;;18.20;93.10;;;;;;5060558;28;20028;-85
2022/09/09 01:59:15;;;;;;;2.45;0.90;;;18.20;93.00;;;;;;5060181;28;20044;-86
2022/09/09 02:02:11;;;;;;;1.23;1.02;;;18.20;93.10;;;;;;5071012;28;20029;-85
2022/09/09 02:04:46;;;;;;;2.00;1.08;;;18.10;93.00;;;;;;5042556;28;20420;-86
2022/09/09 02:07:40;;;;;;;2.72;1.00;;;18.00;93.00;;;;;;5042282;28;20037;-85
2022/09/09 02:10:18;;;;;;;2.33;1.08;;;18.00;93.10;;;;;;5061972;28;20045;-86
2022/09/09 02:12:53;;;;;;;1.85;1.10;;;18.00;93.10;;;;;;5043265;28;20044;-86
2022/09/09 02:15:38;;;;;;;1.38;1.00;;;18.00;93.10;;;;;;5044868;28;20076;-85
2022/09/09 02:18:13;;;;;;;2.40;1.35;;;17.90;93.10;;;;;;5044028;28;20048;-85
2022/09/09 02:20:41;;;;;;;1.33;1.10;;;17.90;93.10;;;;;;5044037;28;20025;-86
2022/09/09 02:23:11;;;;;;;1.48;1.20;;;17.90;93.10;;;;;;5043531;28;20037;-85
2022/09/09 02:25:45;;;;;;;1.63;1.27;;;17.90;93.10;;;;;;5043912;28;20080;-86
2022/09/09 02:28:16;;;;;;;1.10;1.00;;;17.90;93.20;;;;;;5027500;28;20068;-85
2022/09/09 02:30:44;;;;;;;1.75;1.20;;;17.80;93.20;;;;;;5044061;28;20093;-85
2022/09/09 02:33:16;;;;;;;1.83;1.35;;;17.80;93.20;;;;;;5043313;28;20033;-85
2022/09/09 02:35:44;;;;;;;2.38;1.10;;;17.80;93.20;;;;;;5044097;28;20021;-86
2022/09/09 02:38:13;;;;;;;2.45;1.13;;;17.80;93.20;;;;;;5061723;28;20071;-86
2022/09/09 02:40:41;;;;;;;4.43;1.30;;;17.80;93.20;;;;;;5042764;28;20025;-86
2022/09/09 02:43:09;;;;;;;2.95;1.10;;;17.70;93.20;;;;;;5043195;28;20032;-85
2022/09/09 02:46:05;;;;;;;1.85;1.35;;;17.80;93.20;;;;;;5043477;28;20037;-86
2022/09/09 02:49:03;;;;;;;2.42;1.38;;;17.70;93.20;;;;;;5054720;28;20095;-86
2022/09/09 02:51:43;;;;;;;1.00;0.90;;;17.70;93.20;;;;;;5042456;28;20045;-85
2022/09/09 02:54:30;;;;;;;1.55;1.00;;;17.70;93.20;;;;;;5060316;28;20028;-85
2022/09/09 02:57:05;;;;;;;2.92;1.25;;;17.70;93.20;;;;;;5043689;28;20017;-86
2022/09/09 02:59:36;;;;;;;1.23;1.05;;;17.70;93.20;;;;;;5043812;28;20021;-84
2022/09/09 03:02:03;;;;;;;1.38;1.10;;;17.70;93.20;;;;;;5043476;28;20021;-87
2022/09/09 03:04:38;;;;;;;2.53;1.50;;;17.70;93.20;;;;;;5060666;28;20047;-86
2022/09/09 03:07:07;;;;;;;1.48;1.20;;;17.70;93.30;;;;;;5044140;28;20021;-86
2022/09/09 03:09:33;;;;;;;2.33;1.30;;;17.60;93.30;;;;;;5043335;28;20021;-86
2022/09/09 03:12:04;;;;;;;1.20;1.10;;;17.60;93.40;;;;;;5026787;28;20032;-85
2022/09/09 03:14:33;;;;;;;1.52;1.00;;;17.60;93.40;;;;;;5042485;28;20037;-85
2022/09/09 03:17:00;;;;;;;4.15;1.60;;;17.60;93.30;;;;;;5026636;28;20033;-86
2022/09/09 03:19:29;;;;;;;1.92;1.20;;;17.50;93.40;;;;;;5026032;28;20025;-86
2022/09/09 03:22:16;;;;;;;3.83;1.50;;;17.60;93.40;;;;;;5026276;28;20037;-85
2022/09/09 03:24:44;;;;;;;5.25;1.77;;;17.50;93.40;;;;;;5060889;28;20144;-85
2022/09/09 03:27:10;;;;;;;1.70;1.42;;;17.60;93.50;;;;;;5026276;28;20025;-86
2022/09/09 03:29:36;;;;;;;2.75;1.65;;;17.50;93.50;;;;;;5042311;28;20047;-85
2022/09/09 03:32:02;;;;;;;2.13;1.33;;;17.50;93.50;;;;;;5041998;28;20063;-85
2022/09/09 03:34:28;;;;;;;3.00;1.20;;;17.50;93.50;;;;;;5025536;28;20033;-85
2022/09/09 03:36:55;;;;;;;2.55;1.58;;;17.50;93.50;;;;;;5042698;28;20029;-85
2022/09/09 03:39:21;;;;;;;2.20;1.52;;;17.50;93.50;;;;;;5042779;28;20033;-87
2022/09/09 03:41:55;;;;;;;2.65;1.23;;;17.50;93.60;;;;;;5043431;28;20096;-84
2022/09/09 03:44:29;;;;;;;4.28;1.80;;;17.50;93.70;;;;;;5059616;28;20081;-88
2022/09/09 03:47:00;;;;;;;3.03;1.70;;;17.50;93.60;;;;;;5062293;28;20029;-86
2022/09/09 03:49:28;;;;;;;2.55;1.50;;;17.50;93.60;;;;;;5042303;28;20041;-90
2022/09/09 03:52:05;;;;;;;1.90;1.35;;;17.50;93.60;;;;;;5041685;28;20030;-85
2022/09/09 03:54:33;;;;;;;2.80;1.42;;;17.50;93.70;;;;;;5022095;28;20400;-84
2022/09/09 03:57:01;;;;;;;1.50;1.35;;;17.50;93.70;;;;;;5007897;28;20116;-84
2022/09/09 03:59:36;;;;;;;1.58;1.30;;;17.50;93.70;;;;;;5023481;28;20029;-86
2022/09/09 04:02:05;;;;;;;1.60;1.40;;;17.50;93.80;;;;;;5022696;28;20105;-85
2022/09/09 04:04:41;;;;;;;2.60;1.50;;;17.50;93.80;;;;;;5022603;28;20044;-87
2022/09/09 04:07:42;;;;;;;3.20;1.60;;;17.50;93.90;;;;;;5023135;28;20021;-85
2022/09/09 04:10:15;;;;;;;2.83;1.55;;;17.60;94.00;;;;;;5024984;28;20049;-85
2022/09/09 04:12:51;;;;;;;2.88;1.75;;;17.60;94.00;;;;;;4992373;28;20060;-86
2022/09/09 04:15:21;;;;;;;2.42;1.67;;;17.60;94.00;;;;;;4991375;28;20440;-86
2022/09/09 04:18:09;;;;;;;3.80;1.90;;;17.70;94.10;;;;;;5022246;28;20029;-86
2022/09/09 04:20:44;;;;;;;3.65;1.70;;;17.70;94.20;;;;;;5022142;28;20036;-85
2022/09/09 04:23:12;;;;;;;2.85;1.52;;;17.70;94.20;;;;;;5022544;28;20457;-85
2022/09/09 04:25:48;;;;;;;2.78;1.60;;;17.70;94.30;;;;;;5021739;28;20064;-84
2022/09/09 04:28:18;;;;;;;2.78;1.75;;;17.70;94.40;;;;;;5021556;28;20367;-87
2022/09/09 04:30:44;;;;;;;3.63;1.92;;;17.70;94.40;;;;;;5004556;28;20045;-86
2022/09/09 04:33:11;;;;;;;5.57;1.50;;;17.70;94.40;;;;;;5021293;28;20108;-85
2022/09/09 04:35:37;;;;;;;4.45;1.73;;;17.70;94.40;;;;;;5004744;28;20029;-86
2022/09/09 04:38:09;;;;;;;2.90;1.52;;;17.80;94.50;;;;;;5038433;28;20359;-86
2022/09/09 04:40:42;;;;;;;3.70;2.03;;;17.80;94.50;;;;;;5021231;28;20122;-85
2022/09/09 04:43:09;;;;;;;6.70;1.80;;;17.80;94.60;;;;;;5021461;28;20029;-87
2022/09/09 04:45:38;;;;;;;5.75;1.80;;;17.80;94.60;;;;;;5021672;28;20085;-86
2022/09/09 04:48:08;;;;;;;5.90;1.92;;;17.80;94.60;;;;;;5021161;28;20036;-86
2022/09/09 04:50:37;;;;;;;4.90;2.10;;;17.80;94.70;;;;;;5037001;28;20053;-85
2022/09/09 04:53:04;;;;;;;3.97;1.48;;;17.80;94.70;;;;;;5041011;28;20032;-86
2022/09/09 04:55:34;;;;;;;3.63;1.65;;;17.90;94.70;;;;;;5040990;28;20120;-86
2022/09/09 04:58:13;;;;;;;2.92;1.60;;;17.90;94.60;;;;;;5058835;28;20021;-86
2022/09/09 05:00:39;;;;;;;3.88;1.40;;;17.90;94.70;;;;;;5058979;28;20021;-85
2022/09/09 05:03:12;;;;;;;5.32;1.77;;;17.90;94.70;;;;;;5040742;28;20061;-86
2022/09/09 05:05:42;;;;;;;4.50;1.80;;;18.00;94.70;;;;;;5059328;28;20384;-85
2022/09/09 05:08:13;;;;;;;3.13;1.60;;;18.00;94.70;;;;;;5041052;28;20115;-87
2022/09/09 05:10:46;;;;;;;7.25;1.92;;;18.00;94.70;;;;;;5040895;28;20067;-85
2022/09/09 05:13:14;;;;;;;1.83;1.40;;;18.00;94.70;;;;;;5040801;28;20025;-85
2022/09/09 05:15:40;;;;;;;3.20;1.58;;;18.00;94.70;;;;;;5040116;28;20055;-84
2022/09/09 05:18:06;;;;;;;3.05;1.55;;;18.00;94.70;;;;;;5041591;28;20033;-87
2022/09/09 05:20:42;;;;;;;5.18;2.10;;;18.10;94.80;;;;;;5042096;28;20031;-85
2022/09/09 05:23:13;;;;;;;3.80;1.83;;;18.10;94.80;;;;;;5042509;28;20104;-86
2022/09/09 05:25:43;;;;;;;3.53;1.73;;;18.10;94.80;;;;;;5041561;28;20044;-84
2022/09/09 05:28:12;;;;;;;7.13;1.50;;;18.10;94.80;;;;;;5041976;28;20059;-86
2022/09/09 05:30:42;;;;;;;5.10;1.95;;;18.10;94.80;;;;;;5041700;28;20033;-87
2022/09/09 05:33:09;;;;;;;3.92;1.88;;;18.10;94.80;;;;;;5041979;28;20029;-88
2022/09/09 05:35:42;;;;;;;7.72;4.43;;;18.10;94.80;;;;;;5042709;28;20043;-87
2022/09/09 05:38:11;;;;;;;5.32;3.50;;;18.20;94.80;;;;;;5076382;28;20009;-88
2022/09/09 05:40:50;;;;;;;4.95;2.22;;;18.20;94.80;;;;;;5060133;28;20005;-88
2022/09/09 05:43:25;;;;;;;7.03;2.13;;;18.20;94.90;;;;;;5077327;28;20025;-84
2022/09/09 05:46:25;;;;;;;3.22;1.98;;;18.20;94.90;;;;;;5062173;28;20048;-85
2022/09/09 05:48:52;;;;;;;4.47;1.67;;;18.30;94.90;;;;;;5011462;28;20123;-87
2022/09/09 05:51:27;;;;;;;4.00;1.70;;;18.30;94.80;;;;;;5041483;28;20412;-86
2022/09/09 05:53:58;;;;;;;4.82;1.90;;;18.30;94.80;;;;;;5025209;28;20044;-83
2022/09/09 05:56:28;;;;;;;5.78;2.08;;;18.30;94.80;;;;;;5040732;28;20029;-90
2022/09/09 05:58:59;;;;;;;4.97;2.13;;;18.30;94.80;;;;;;5024287;28;20069;-85
2022/09/09 06:01:36;;;;;;;3.80;1.83;;;18.30;94.80;;;;;;5036514;28;20503;-87
2022/09/09 06:04:05;;;;;;;4.32;1.90;;;18.30;94.80;;;;;;5057763;28;20385;-85
2022/09/09 06:06:36;;;;;;;5.32;1.67;;;18.30;94.80;;;;;;5033126;28;20029;-87
2022/09/09 06:09:11;;;;;;;6.57;2.45;;;18.30;94.80;;;;;;5058619;28;20033;-86
2022/09/09 06:11:50;;;;;;;4.32;1.77;;;18.30;94.80;;;;;;5041489;28;20100;-85
2022/09/09 06:14:19;;;;;;;4.20;1.73;;;18.30;94.80;;;;;;5024937;28;20064;-86
2022/09/09 06:16:45;;;;;;;6.15;2.05;;;18.40;95.20;;;;;;5040382;28;20029;-85
2022/09/09 06:19:14;;;;;;;4.47;1.80;;;18.40;94.90;;;;;;5021619;28;20045;-86
2022/09/09 06:21:40;;;;;;;3.88;1.52;;;18.40;95.00;;;;;;5023856;28;20552;-86
2022/09/09 06:24:10;;;;;;;6.00;1.80;;;18.40;95.00;;;;;;5040266;28;20033;-85
2022/09/09 06:26:49;;;;;;;4.38;2.20;;;18.40;95.00;;;;;;5025015;28;20033;-87
2022/09/09 06:29:18;;;;;;;6.10;2.05;;;18.40;95.00;;;;;;5040064;28;20032;-86
2022/09/09 06:31:55;;;;;;;;;;;;;;;;;;;;;
2022/09/09 06:34:24;;;;;;;4.18;2.10;;;18.50;95.10;;;;;;5058556;28;20100;-86
2022/09/09 06:36:52;;;;;;;5.07;1.67;;;18.50;95.00;;;;;;5057854;28;20021;-86
2022/09/09 06:39:21;;;;;;;3.55;1.80;;;18.60;95.00;;;;;;5039567;28;20033;-86
2022/09/09 06:41:49;;;;;;;5.88;1.75;;;18.60;94.90;;;;;;5039875;28;20056;-86
2022/09/09 06:44:15;;;;;;;4.47;1.80;;;18.60;94.90;;;;;;5039976;28;20056;-84
2022/09/09 06:46:49;;;;;;;3.78;1.60;;;18.60;94.90;;;;;;5039783;28;20025;-87
2022/09/09 06:49:33;;;;;;;2.30;1.33;;;18.60;94.80;;;;;;5039380;28;20025;-86
2022/09/09 06:52:06;;;;;;;3.40;1.33;;;18.60;94.80;;;;;;5022206;28;20055;-86
2022/09/09 06:54:32;;;;;;;4.13;1.60;;;18.60;94.90;;;;;;5041225;28;20029;-86
2022/09/09 06:57:13;;;;;;;;;;;;;;;;;;;;;
2022/09/09 06:59:43;;;;;;;3.70;1.40;;;18.60;94.90;;;;;;5030436;28;20120;-83
2022/09/09 07:02:12;;;;;;;4.40;1.50;;;18.50;94.90;;;;;;5026549;28;20056;-88
2022/09/09 07:04:40;;;;;;;5.40;1.58;;;18.50;94.90;;;;;;5041602;28;20021;-88
2022/09/09 07:07:13;;;;;;;4.53;1.60;;;18.50;94.90;;;;;;5059236;28;20037;-86
2022/09/09 07:09:49;;;;;;;3.50;1.50;;;18.60;95.00;;;;;;5044956;28;20385;-85
2022/09/09 07:12:22;;;;;;;4.55;1.38;;;18.60;95.00;;;;;;5043073;28;20025;-85
2022/09/09 07:15:10;;;;;;;5.18;1.83;;;18.60;95.00;;;;;;5027069;28;20021;-85
2022/09/09 07:17:37;;;;;;;4.32;1.40;;;18.60;95.00;;;;;;5043470;28;20032;-85
2022/09/09 07:20:23;;;;;;;7.40;1.77;;;18.70;95.00;;;;;;5044011;28;20369;-86
2022/09/09 07:22:49;;;;;;;5.68;1.95;;;18.70;95.00;;;;;;5059695;28;20025;-85
2022/09/09 07:25:17;;;;;;;3.65;1.60;;;18.70;95.00;;;;;;5042500;28;20539;-85
2022/09/09 07:27:44;;;;;;;5.22;1.40;;;18.70;95.00;;;;;;5060381;28;20112;-85
2022/09/09 07:30:11;;;;;;;5.20;1.48;;;18.70;95.00;;;;;;5047956;28;20025;-84
2022/09/09 07:32:37;;;;;;;4.05;1.33;;;18.70;95.10;;;;;;5061683;28;20013;-85
2022/09/09 07:35:04;;;;;;;4.90;1.60;;;18.80;95.10;;;;;;5046245;28;20019;-84
2022/09/09 07:37:30;;;;;;;4.18;1.52;;;18.80;95.10;;;;;;5045758;28;20025;-84
2022/09/09 07:39:55;;;;;;;4.63;1.60;;;18.90;95.10;;;;;;5044814;28;20037;-86
2022/09/09 07:42:34;;;;;;;;;;;;;;;;;;;;;
2022/09/09 07:45:06;;;;;;;5.10;1.80;;;19.00;95.00;;;;;;5049813;28;20509;-85
2022/09/09 07:47:33;;;;;;;5.00;1.60;;;19.00;94.90;;;;;;5041349;28;20031;-82
2022/09/09 07:49:59;;;;;;;6.88;1.95;;;19.10;95.00;;;;;;5040350;28;20049;-84
2022/09/09 07:52:27;;;;;;;4.55;1.70;;;19.10;94.90;;;;;;5058291;28;20023;-84
2022/09/09 07:55:04;;;;;;;5.47;1.63;;;19.20;94.90;;;;;;5023917;28;20029;-84
2022/09/09 07:57:30;;;;;;;3.75;1.30;;;19.20;94.90;;;;;;5040336;28;20029;-83
2022/09/09 08:00:02;;;;;;;4.20;1.48;;;19.20;94.90;;;;;;5023274;28;20496;-83
2022/09/09 08:02:29;;;;;;;7.13;1.63;;;19.20;94.80;;;;;;5039826;28;20070;-84
2022/09/09 08:04:58;;;;;;;4.10;1.48;;;19.20;94.80;;;;;;5057637;28;20029;-84
2022/09/09 08:07:24;;;;;;;7.22;1.60;;;19.20;94.70;;;;;;5024662;28;20091;-84
2022/09/09 08:09:56;;;;;;;5.75;1.90;;;19.30;94.60;;;;;;5039452;28;20037;-84
2022/09/09 08:12:27;;;;;;;2.13;1.15;;;19.30;94.50;;;;;;5023788;28;20025;-85
2022/09/09 08:14:53;;;;;;;3.95;1.40;;;19.30;94.50;;;;;;5040642;28;20028;-83
2022/09/09 08:17:22;;;;;;;4.40;1.70;;;19.30;94.40;;;;;;5040220;28;20044;-84
2022/09/09 08:19:48;;;;;;;5.40;1.48;;;19.30;94.30;;;;;;5039612;28;20027;-84
2022/09/09 08:22:14;;;;;;;4.38;1.67;;;19.30;94.30;;;;;;5023897;28;20032;-84
2022/09/09 08:24:40;;;;;;;5.95;1.70;;;19.30;94.20;;;;;;5039319;28;20021;-80
2022/09/09 08:27:06;;;;;;;6.93;1.73;;;19.40;94.10;;;;;;5022972;28;20033;-83
2022/09/09 08:29:33;;;;;;;4.45;1.58;;;19.40;94.00;;;;;;5039129;28;20060;-82
2022/09/09 08:31:59;;;;;;;4.50;1.50;;;19.50;94.00;;;;;;5038970;28;20090;-83
2022/09/09 08:34:31;;;;;;;4.57;1.80;;;19.50;94.00;;;;;;5038877;28;20020;-82
2022/09/09 08:36:58;;;;;;;6.03;1.70;;;19.50;94.00;;;;;;5038523;28;20029;-83
2022/09/09 08:39:26;;;;;;;5.10;2.15;;;19.50;93.90;;;;;;5038772;28;20036;-83
2022/09/09 08:42:22;;;;;;;7.30;2.45;;;19.60;93.80;;;;;;5038860;28;20052;-83
2022/09/09 08:44:48;;;;;;;3.63;1.30;;;19.70;93.70;;;;;;5018184;28;20505;-82
2022/09/09 08:47:32;;;;;;;7.50;2.10;;;19.60;93.60;;;;;;5038659;28;20032;-84
2022/09/09 08:50:21;;;;;;;4.75;1.80;;;19.60;93.60;;;;;;5038076;28;20370;-83
2022/09/09 08:53:05;;;;;;;4.63;1.67;;;19.70;93.60;;;;;;5038221;28;20025;-83
2022/09/09 08:55:41;;;;;;;6.32;1.52;;;19.60;93.40;;;;;;5038133;28;20059;-83
2022/09/09 08:58:19;;;;;;;5.45;1.40;;;19.60;93.50;;;;;;5038015;28;20029;-83
2022/09/09 09:01:07;;;;;;;3.97;1.35;;;19.60;93.40;;;;;;5039187;28;20029;-85
2022/09/09 09:03:58;;;;;;;5.05;1.42;;;19.60;93.40;;;;;;5038614;28;20017;-84
2022/09/09 09:06:49;;;;;;;5.07;1.45;;;19.60;93.30;;;;;;5055322;28;20064;-83
2022/09/09 09:10:05;;;;;;;8.40;1.73;;;19.60;93.20;;;;;;5038993;28;20029;-86
2022/09/09 09:12:43;;;;;;;3.45;1.23;;;19.60;93.20;;;;;;5057671;28;20091;-85
2022/09/09 09:15:27;;;;;;;3.08;1.35;;;19.70;93.10;;;;;;5039190;28;20027;-83
2022/09/09 09:17:59;;;;;;;4.57;1.00;;;19.70;93.00;;;;;;5057838;28;20039;-83
2022/09/09 09:21:00;;;;;;;4.43;1.10;;;19.70;92.90;;;;;;5038710;28;20040;-83
2022/09/09 09:23:35;;;;;;;3.78;1.35;;;19.70;92.80;;;;;;5040617;28;20029;-83
2022/09/09 09:26:06;;;;;;;5.97;1.55;;;19.80;92.80;;;;;;5019128;28;20051;-84
2022/09/09 09:28:36;;;;;;;4.72;1.40;;;19.80;92.70;;;;;;5061019;28;20029;-84
2022/09/09 09:31:22;;;;;;;3.72;1.20;;;19.80;92.60;;;;;;5056868;28;20041;-84
2022/09/09 09:33:56;;;;;;;3.55;1.42;;;19.90;92.50;;;;;;5075257;28;20025;-90
2022/09/09 09:36:50;;;;;;;5.75;1.48;;;19.90;92.50;;;;;;5057087;28;20063;-84
2022/09/09 09:39:46;;;;;;;4.55;1.30;;;19.90;92.40;;;;;;5052949;28;20465;-85
2022/09/09 09:42:17;;;;;;;3.42;1.30;;;19.90;92.50;;;;;;5057681;28;20071;-84
2022/09/09 09:44:45;;;;;;;6.22;1.27;;;19.90;92.50;;;;;;5055313;28;20025;-83
2022/09/09 09:47:23;;;;;;;3.78;1.77;;;19.90;92.50;;;;;;5038216;28;20025;-85
2022/09/09 09:49:53;;;;;;;4.47;1.60;;;20.00;92.50;;;;;;5038200;28;20053;-84
2022/09/09 09:52:26;;;;;;;5.93;1.90;;;20.10;92.50;;;;;;5021505;28;20534;-83
2022/09/09 09:55:11;;;;;;;3.92;1.60;;;20.10;92.30;;;;;;5038951;28;20048;-84
2022/09/09 09:57:59;;;;;;;6.18;1.30;;;20.10;92.30;;;;;;5039369;28;20075;-84
2022/09/09 10:00:38;;;;;;;3.58;1.17;;;20.20;92.30;;;;;;5038433;28;20033;-85
2022/09/09 10:03:29;;;;;;;4.90;1.63;;;20.20;92.20;;;;;;5056217;28;20040;-85
2022/09/09 10:06:13;;;;;;;3.88;1.23;;;20.30;92.20;;;;;;5038813;28;20025;-85
2022/09/09 10:08:46;;;;;;;2.92;1.10;;;20.30;92.10;;;;;;5039160;28;20060;-84
2022/09/09 10:11:20;;;;;;;4.45;1.40;;;20.40;92.00;;;;;;5039016;28;20369;-83
2022/09/09 10:13:59;;;;;;;5.00;1.20;;;20.40;92.00;;;;;;5039832;28;20123;-84
2022/09/09 10:16:30;;;;;;;5.63;1.60;;;20.30;91.90;;;;;;5040479;28;20029;-84
2022/09/09 10:19:14;;;;;;;5.43;1.25;;;20.30;91.90;;;;;;5040238;28;20060;-84
2022/09/09 10:21:59;;;;;;;2.05;1.00;;;20.40;91.90;;;;;;5024581;28;20035;-84
2022/09/09 10:25:02;;;;;;;7.25;2.13;;;20.30;91.80;;;;;;5040983;28;20052;-85
2022/09/09 10:27:42;;;;;;;4.20;1.63;;;20.30;91.80;;;;;;5058421;28;20021;-86
2022/09/09 10:30:18;;;;;;;4.20;1.58;;;20.30;91.80;;;;;;5042627;28;20017;-84
2022/09/09 10:33:20;;;;;;;4.20;1.35;;;20.20;91.70;;;;;;5058527;28;20028;-85
2022/09/09 10:36:00;;;;;;;6.57;1.70;;;20.30;91.70;;;;;;5041217;28;20025;-86
2022/09/09 10:38:47;;;;;;;4.43;1.27;;;20.20;91.70;;;;;;5041829;28;20029;-85
2022/09/09 10:41:35;;;;;;;5.18;1.63;;;20.20;91.70;;;;;;5042036;28;20025;-85
2022/09/09 10:44:26;;;;;;;4.07;1.30;;;20.20;91.60;;;;;;5059563;28;20497;-86
2022/09/09 10:46:54;;;;;;;3.58;1.42;;;20.20;91.60;;;;;;5041575;28;20076;-85
2022/09/09 10:49:33;;;;;;;5.38;1.05;;;20.30;91.70;;;;;;5057925;28;20053;-81
2022/09/09 10:52:25;;;;;;;4.85;1.50;;;20.30;91.80;;;;;;5021179;28;20041;-84
2022/09/09 10:55:02;;;;;;;2.63;1.13;;;20.30;91.80;;;;;;5038904;28;20042;-85
2022/09/09 10:57:48;;;;;;;4.95;1.50;;;20.40;91.80;;;;;;5021832;28;20120;-85
2022/09/09 11:00:20;;;;;;;4.45;1.23;;;20.40;92.00;;;;;;5021465;28;20025;-84
2022/09/09 11:02:55;;;;;;;3.28;1.30;;;20.40;91.70;;;;;;5039868;28;20568;-86
2022/09/09 11:05:53;;;;;;;7.05;1.50;;;20.40;91.60;;;;;;5003654;28;20485;-85
2022/09/09 11:08:25;;;;;;;3.65;1.20;;;20.40;91.60;;;;;;5038372;28;20034;-85
2022/09/09 11:11:17;;;;;;;3.50;1.05;;;20.40;91.50;;;;;;5022097;28;20034;-85
2022/09/09 11:14:16;;;;;;;4.63;1.40;;;20.40;91.50;;;;;;5040116;28;20018;-84
2022/09/09 11:17:00;;;;;;;2.22;1.13;;;20.40;91.50;;;;;;5021921;28;20025;-86
2022/09/09 11:19:51;;;;;;;5.53;1.67;;;20.40;91.60;;;;;;5022181;28;20036;-85
2022/09/09 11:22:42;;;;;;;3.95;1.20;;;20.40;91.80;;;;;;5022717;28;20532;-84
2022/09/09 11:25:19;;;;;;;5.20;1.38;;;20.50;92.10;;;;;;5022397;28;20452;-84
2022/09/09 11:28:14;;;;;;;4.28;1.38;;;20.50;92.30;;;;;;5022152;28;20064;-84
2022/09/09 11:31:30;;;;;;;6.40;1.75;;;20.50;92.40;;;;;;5055487;28;20018;-83
2022/09/09 11:34:08;;;;;;;6.07;1.38;;;20.50;92.40;;;;;;5037735;28;20041;-85
2022/09/09 11:36:58;;;;;;;3.78;1.25;;;20.50;92.40;;;;;;5042632;28;20045;-85
2022/09/09 11:39:59;;;;;;;3.63;1.60;;;20.50;92.50;;;;;;5049510;28;20086;-85
2022/09/09 11:42:27;;;;;;;4.30;1.10;;;20.50;92.60;;;;;;5017894;28;20088;-85
2022/09/09 11:44:56;;;;;;;4.63;1.17;;;20.60;92.60;;;;;;5004543;28;20037;-84
2022/09/09 11:47:33;;;;;;;3.78;1.13;;;20.60;92.60;;;;;;4988675;28;20033;-83
2022/09/09 11:50:36;;;;;;;2.65;0.93;;;20.60;92.60;;;;;;5042763;28;20048;-83
2022/09/09 11:53:22;;;;;;;3.88;1.23;;;20.60;92.50;;;;;;5040299;28;20029;-84
2022/09/09 11:56:04;;;;;;;3.72;1.38;;;20.70;92.50;;;;;;5036423;28;20044;-84
2022/09/09 11:58:55;;;;;;;4.35;1.42;;;20.60;92.50;;;;;;5040754;28;20381;-83
2022/09/09 12:01:32;;;;;;;3.33;1.05;;;20.60;92.70;;;;;;5056833;28;20445;-84
2022/09/09 12:04:28;;;;;;;4.45;1.58;;;20.60;92.80;;;;;;5057993;28;20120;-84
2022/09/09 12:07:36;;;;;;;4.30;1.20;;;20.60;92.90;;;;;;5040217;28;20531;-84
2022/09/09 12:10:05;;;;;;;4.00;1.17;;;20.60;93.00;;;;;;5036345;28;20505;-84
2022/09/09 12:12:51;;;;;;;3.60;1.20;;;20.70;93.00;;;;;;5039515;28;20017;-84
2022/09/09 12:15:28;;;;;;;3.53;1.35;;;20.70;93.00;;;;;;5039803;28;20021;-86
2022/09/09 12:17:57;;;;;;;3.85;1.10;;;20.70;92.80;;;;;;5039548;28;20415;-85
2022/09/09 12:20:32;;;;;;;3.05;1.25;;;20.70;92.80;;;;;;5038422;28;20079;-82
2022/09/09 12:23:23;;;;;;;2.75;1.00;;;20.70;92.80;;;;;;5040034;28;20035;-84
2022/09/09 12:26:32;;;;;;;2.35;1.02;;;20.60;92.80;;;;;;5057328;28;20522;-85
2022/09/09 12:29:22;;;;;;;2.53;1.17;;;20.60;92.80;;;;;;5039350;28;20125;-85
2022/09/09 12:32:14;;;;;;;1.92;0.90;;;20.70;92.80;;;;;;5056898;28;20024;-85
2022/09/09 12:35:03;;;;;;;4.35;1.20;;;20.70;92.80;;;;;;5039183;28;20021;-85
2022/09/09 12:37:52;;;;;;;3.25;1.10;;;20.70;92.80;;;;;;5039719;28;20029;-84
2022/09/09 12:40:28;;;;;;;3.25;0.95;;;20.80;92.80;;;;;;5039177;28;20064;-83
2022/09/09 12:43:02;;;;;;;2.03;1.00;;;20.80;92.70;;;;;;5039931;28;20021;-84
2022/09/09 12:45:35;;;;;;;3.25;1.10;;;20.90;92.70;;;;;;5038942;28;20025;-83
2022/09/09 12:48:11;;;;;;;2.65;0.82;;;20.90;92.60;;;;;;5039931;28;20071;-85
2022/09/09 12:51:07;;;;;;;3.20;0.93;;;21.00;92.50;;;;;;5038972;28;20080;-84
2022/09/09 12:53:42;;;;;;;2.03;0.85;;;21.00;92.50;;;;;;5027531;28;20065;-84
2022/09/09 12:56:26;;;;;;;3.35;1.00;;;21.00;92.40;;;;;;5039456;28;20380;-84
2022/09/09 12:58:55;;;;;;;1.73;0.73;;;21.00;92.40;;;;;;5053632;28;20033;-85
2022/09/09 13:01:54;;;;;;;2.10;0.93;;;21.00;92.20;;;;;;5057329;28;20025;-83
2022/09/09 13:04:29;;;;;;;4.53;1.27;;;21.00;92.20;;;;;;5057033;28;20448;-84
2022/09/09 13:07:06;;;;;;;1.92;1.05;;;21.00;92.20;;;;;;5039805;28;20033;-84
2022/09/09 13:09:53;;;;;;;2.10;1.00;;;21.10;92.20;;;;;;5024361;28;20029;-84
2022/09/09 13:12:27;;;;;;;1.65;0.70;;;21.10;92.10;;;;;;5041853;28;20508;-83
2022/09/09 13:14:56;;;;;;;2.58;1.10;;;21.10;92.10;;;;;;5022913;28;20441;-83
2022/09/09 13:17:24;;;;;;;2.13;1.05;;;21.00;92.10;;;;;;5038841;28;20021;-84
2022/09/09 13:19:52;;;;;;;4.30;1.00;;;21.00;92.10;;;;;;5040691;28;20025;-85
2022/09/09 13:22:47;;;;;;;3.20;1.00;;;21.10;92.20;;;;;;5042717;28;20021;-84
2022/09/09 13:25:18;;;;;;;2.28;0.90;;;21.10;92.10;;;;;;5041773;28;20037;-83
2022/09/09 13:28:09;;;;;;;4.65;1.50;;;21.10;92.00;;;;;;5058194;28;20044;-84
2022/09/09 13:30:40;;;;;;;2.85;1.00;;;21.10;92.00;;;;;;5049383;28;20021;-86
2022/09/09 13:33:22;;;;;;;1.88;1.00;;;21.10;92.00;;;;;;5074232;28;20029;-86
2022/09/09 13:35:56;;;;;;;2.70;1.60;;;21.10;91.90;;;;;;5068597;28;20028;-83
2022/09/09 13:41:26;;;;;;;2.85;1.10;;;21.10;92.00;;;;;;5052983;28;20095;-84
2022/09/09 13:44:13;;;;;;;2.28;1.10;;;21.10;91.90;;;;;;5044278;28;20025;-85